createdAt,value
2018-09-01T00:01:42.285Z,100492.70
2018-09-01T00:04:10.054Z,100506.28
2018-09-01T00:06:37.749Z,100500.44
2018-09-01T00:09:05.957Z,100498.34
2018-09-01T00:11:33.655Z,100491.95
2018-09-01T00:14:01.382Z,100491.30
2018-09-01T00:16:29.090Z,100491.11
2018-09-01T00:18:56.732Z,100489.30
2018-09-01T00:21:24.675Z,100490.67
2018-09-01T00:23:53.118Z,100487.48
2018-09-01T00:26:20.877Z,100493.62
2018-09-01T00:28:48.717Z,100499.52
2018-09-01T00:31:16.356Z,100504.63
2018-09-01T00:33:44.144Z,100498.33
2018-09-01T00:36:11.861Z,100497.78
2018-09-01T00:38:45.234Z,100502.25
2018-09-01T00:41:12.993Z,100508.52
2018-09-01T00:43:40.756Z,100505.68
2018-09-01T00:46:08.418Z,100509.97
2018-09-01T00:48:36.032Z,100515.34
2018-09-01T00:51:03.854Z,100517.11
2018-09-01T00:53:31.547Z,100520.98
2018-09-01T00:55:59.193Z,100517.92
2018-09-01T00:58:26.840Z,100513.73
2018-09-01T01:00:54.547Z,100505.86
2018-09-01T01:03:22.274Z,100513.44
2018-09-01T01:05:49.922Z,100508.67
2018-09-01T01:08:17.733Z,100499.80
2018-09-01T01:10:45.411Z,100500.50
2018-09-01T01:13:13.017Z,100494.65
2018-09-01T01:15:40.771Z,100496.47
2018-09-01T01:18:08.363Z,100495.42
2018-09-01T01:20:36.133Z,100497.84
2018-09-01T01:23:03.836Z,100496.95
2018-09-01T01:25:31.445Z,100492.98
2018-09-01T01:27:59.115Z,100482.80
2018-09-01T01:30:26.751Z,100479.63
2018-09-01T01:32:54.414Z,100495.63
2018-09-01T01:35:22.045Z,100492.22
2018-09-01T01:37:49.772Z,100504.59
2018-09-01T01:40:17.448Z,100501.47
2018-09-01T01:42:45.159Z,100499.41
2018-09-01T01:45:12.817Z,100491.29
2018-09-01T01:47:41.308Z,100485.84
2018-09-01T01:50:10.173Z,100487.34
2018-09-01T01:52:37.815Z,100491.11
2018-09-01T01:55:05.553Z,100502.11
2018-09-01T01:57:37.797Z,100510.75
2018-09-01T02:00:05.913Z,100516.68
2018-09-01T02:02:33.571Z,100514.20
2018-09-01T02:05:01.235Z,100519.83
2018-09-01T02:07:28.976Z,100520.67
2018-09-01T02:09:56.721Z,100516.95
2018-09-01T02:12:24.491Z,100512.87
2018-09-01T02:14:52.178Z,100507.59
2018-09-01T02:17:19.858Z,100502.55
2018-09-01T02:19:47.582Z,100504.70
2018-09-01T02:22:15.325Z,100504.98
2018-09-01T02:24:43.179Z,100494.14
2018-09-01T02:27:10.836Z,100494.59
2018-09-01T02:29:38.436Z,100499.42
2018-09-01T02:32:06.192Z,100500.06
2018-09-01T02:34:33.860Z,100500.18
2018-09-01T02:37:01.543Z,100496.42
2018-09-01T02:39:29.233Z,100497.34
2018-09-01T02:41:57.130Z,100502.27
2018-09-01T02:44:24.726Z,100497.11
2018-09-01T02:46:52.366Z,100503.59
2018-09-01T02:49:20.026Z,100512.95
2018-09-01T02:51:47.629Z,100515.27
2018-09-01T02:54:15.211Z,100515.18
2018-09-01T02:56:42.901Z,100518.30
2018-09-01T02:59:10.772Z,100522.14
2018-09-01T03:01:38.495Z,100532.22
2018-09-01T03:04:07.109Z,100533.30
2018-09-01T03:06:49.173Z,100532.70
2018-09-01T03:09:16.809Z,100528.26
2018-09-01T03:11:44.438Z,100533.33
2018-09-01T03:14:12.101Z,100527.21
2018-09-01T03:16:39.837Z,100516.66
2018-09-01T03:19:08.109Z,100521.84
2018-09-01T03:21:36.025Z,100517.52
2018-09-01T03:24:03.781Z,100526.28
2018-09-01T03:26:31.561Z,100523.52
2018-09-01T03:28:59.239Z,100517.41
2018-09-01T03:31:26.899Z,100514.41
2018-09-01T03:33:54.837Z,100516.47
2018-09-01T03:36:22.501Z,100508.19
2018-09-01T03:38:50.176Z,100510.70
2018-09-01T03:41:17.851Z,100511.45
2018-09-01T03:43:45.585Z,100511.31
2018-09-01T03:46:13.289Z,100510.59
2018-09-01T03:48:41.231Z,100515.17
2018-09-01T03:51:08.868Z,100519.01
2018-09-01T03:56:15.682Z,100523.95
2018-09-01T03:58:43.352Z,100523.23
2018-09-01T04:01:10.999Z,100525.02
2018-09-01T04:03:38.606Z,100525.66
2018-09-01T04:06:06.215Z,100531.27
2018-09-01T04:08:33.829Z,100539.14
2018-09-01T04:11:01.466Z,100535.80
2018-09-01T04:13:29.104Z,100545.03
2018-09-01T04:15:56.718Z,100542.16
2018-09-01T04:18:24.376Z,100538.47
2018-09-01T04:20:52.150Z,100545.66
2018-09-01T04:23:19.791Z,100546.95
2018-09-01T04:25:47.491Z,100549.56
2018-09-01T04:28:15.098Z,100553.17
2018-09-01T04:30:42.778Z,100557.50
2018-09-01T04:33:10.428Z,100556.30
2018-09-01T04:35:38.201Z,100557.50
2018-09-01T04:38:05.907Z,100562.60
2018-09-01T04:40:33.541Z,100560.11
2018-09-01T04:43:01.183Z,100563.09
2018-09-01T04:45:28.825Z,100563.56
2018-09-01T04:47:56.460Z,100576.12
2018-09-01T04:50:24.211Z,100576.90
2018-09-01T04:52:51.910Z,100574.03
2018-09-01T04:55:19.591Z,100581.69
2018-09-01T04:57:47.341Z,100579.64
2018-09-01T05:00:22.220Z,100574.31
2018-09-01T05:02:51.196Z,100573.39
2018-09-01T05:05:18.918Z,100530.32
2018-09-01T05:07:46.904Z,100580.19
2018-09-01T05:10:14.694Z,100586.70
2018-09-01T05:12:42.324Z,100580.76
2018-09-01T05:15:10.115Z,100579.48
2018-09-01T05:17:37.860Z,100587.25
2018-09-01T05:20:05.884Z,100589.31
2018-09-01T05:22:33.620Z,100590.23
2018-09-01T05:25:01.351Z,100596.98
2018-09-01T05:27:29.138Z,100585.56
2018-09-01T05:29:56.848Z,100589.48
2018-09-01T05:32:24.686Z,100588.06
2018-09-01T05:34:52.301Z,100591.72
2018-09-01T05:37:19.947Z,100592.55
2018-09-01T05:39:47.618Z,100600.23
2018-09-01T05:42:15.323Z,100604.91
2018-09-01T05:44:42.998Z,100604.29
2018-09-01T05:47:10.648Z,100611.16
2018-09-01T05:49:38.277Z,100611.08
2018-09-01T05:52:06.086Z,100613.34
2018-09-01T05:54:33.863Z,100613.17
2018-09-01T05:57:01.687Z,100613.25
2018-09-01T05:59:29.401Z,100611.02
2018-09-01T06:01:57.100Z,100611.09
2018-09-01T06:04:24.815Z,100604.62
2018-09-01T06:06:52.469Z,100609.48
2018-09-01T06:09:20.115Z,100610.02
2018-09-01T06:11:48.239Z,100612.76
2018-09-01T06:14:15.813Z,100608.95
2018-09-01T06:16:43.471Z,100608.44
2018-09-01T06:19:11.167Z,100620.50
2018-09-01T06:21:38.776Z,100616.86
2018-09-01T06:24:06.902Z,100620.37
2018-09-01T06:26:34.542Z,100616.74
2018-09-01T06:29:06.883Z,100616.17
2018-09-01T06:31:34.525Z,100622.80
2018-09-01T06:34:02.162Z,100620.28
2018-09-01T06:36:29.739Z,100615.03
2018-09-01T06:38:57.383Z,100591.40
2018-09-01T06:41:25.073Z,100629.41
2018-09-01T06:43:52.669Z,100626.45
2018-09-01T06:46:20.431Z,100618.72
2018-09-01T06:48:48.092Z,100628.21
2018-09-01T06:51:15.760Z,100623.56
2018-09-01T06:53:43.451Z,100627.66
2018-09-01T06:56:11.119Z,100627.92
2018-09-01T06:58:38.770Z,100631.91
2018-09-01T07:01:06.601Z,100631.93
2018-09-01T07:03:34.204Z,100633.28
2018-09-01T07:06:01.870Z,100636.70
2018-09-01T07:08:29.473Z,100651.99
2018-09-01T07:10:57.702Z,100639.63
2018-09-01T07:13:25.403Z,100639.88
2018-09-01T07:15:53.226Z,100634.91
2018-09-01T07:18:20.892Z,100647.11
2018-09-01T07:20:48.558Z,100646.94
2018-09-01T07:23:16.219Z,100640.03
2018-09-01T07:25:43.917Z,100636.84
2018-09-01T07:28:11.598Z,100639.91
2018-09-01T07:30:39.364Z,100641.66
2018-09-01T07:33:07.042Z,100637.03
2018-09-01T07:35:34.713Z,100641.17
2018-09-01T07:38:02.410Z,100636.20
2018-09-01T07:40:30.164Z,100648.13
2018-09-01T07:42:57.805Z,100646.54
2018-09-01T07:45:25.460Z,100650.08
2018-09-01T07:47:53.191Z,100647.56
2018-09-01T07:50:20.839Z,100657.31
2018-09-01T07:52:48.518Z,100660.07
2018-09-01T07:55:16.184Z,100657.20
2018-09-01T07:57:43.847Z,100664.09
2018-09-01T08:00:11.625Z,100660.51
2018-09-01T08:02:39.293Z,100662.25
2018-09-01T08:05:07.195Z,100667.09
2018-09-01T08:07:35.017Z,100668.42
2018-09-01T08:10:02.672Z,100667.61
2018-09-01T08:12:30.456Z,100671.55
2018-09-01T08:14:58.147Z,100674.58
2018-09-01T08:17:26.003Z,100672.58
2018-09-01T08:19:54.259Z,100681.04
2018-09-01T08:22:21.958Z,100681.04
2018-09-01T08:24:49.668Z,100676.71
2018-09-01T08:27:17.509Z,100682.47
2018-09-01T08:29:45.331Z,100677.85
2018-09-01T08:32:12.983Z,100685.20
2018-09-01T08:34:40.906Z,100681.86
2018-09-01T08:37:08.548Z,100683.99
2018-09-01T08:39:36.159Z,100678.07
2018-09-01T08:42:03.812Z,100671.60
2018-09-01T08:44:31.413Z,100680.05
2018-09-01T08:46:58.992Z,100672.77
2018-09-01T08:49:26.731Z,100671.59
2018-09-01T08:51:54.560Z,100668.25
2018-09-01T08:54:22.239Z,100673.31
2018-09-01T08:56:50.005Z,100670.75
2018-09-01T08:59:17.625Z,100662.00
2018-09-01T09:01:45.273Z,100674.44
2018-09-01T09:04:13.008Z,100675.45
2018-09-01T09:06:40.669Z,100674.30
2018-09-01T09:09:08.309Z,100677.54
2018-09-01T09:11:36.062Z,100689.17
2018-09-01T09:14:03.728Z,100683.52
2018-09-01T09:16:31.369Z,100687.58
2018-09-01T09:18:59.056Z,100685.68
2018-09-01T09:21:26.744Z,100694.84
2018-09-01T09:23:54.397Z,100689.25
2018-09-01T09:26:22.060Z,100696.98
2018-09-01T09:28:49.740Z,100699.13
2018-09-01T09:31:17.424Z,100696.70
2018-09-01T09:33:45.046Z,100699.83
2018-09-01T09:36:12.668Z,100699.01
2018-09-01T09:38:40.266Z,100704.68
2018-09-01T09:41:07.950Z,100699.52
2018-09-01T09:43:35.597Z,100699.11
2018-09-01T09:46:03.284Z,100700.31
2018-09-01T09:48:30.886Z,100708.52
2018-09-01T09:50:58.529Z,100700.54
2018-09-01T09:53:26.128Z,100694.97
2018-09-01T09:55:53.747Z,100704.11
2018-09-01T09:58:21.392Z,100693.88
2018-09-01T10:00:54.854Z,100695.34
2018-09-01T10:03:22.544Z,100703.17
2018-09-01T10:05:50.179Z,100710.03
2018-09-01T10:08:17.839Z,100703.05
2018-09-01T10:10:45.506Z,100709.17
2018-09-01T10:13:13.192Z,100712.54
2018-09-01T10:15:40.867Z,100709.56
2018-09-01T10:18:08.511Z,100716.89
2018-09-01T10:20:36.182Z,100712.62
2018-09-01T10:23:03.922Z,100714.89
2018-09-01T10:25:31.622Z,100721.37
2018-09-01T10:28:00.265Z,100721.14
2018-09-01T10:30:28.030Z,100713.25
2018-09-01T10:32:55.666Z,100717.11
2018-09-01T10:35:23.302Z,100717.38
2018-09-01T10:37:50.914Z,100719.94
2018-09-01T10:40:18.778Z,100727.42
2018-09-01T10:42:46.463Z,100725.53
2018-09-01T10:45:14.074Z,100724.04
2018-09-01T10:47:41.793Z,100720.27
2018-09-01T10:50:09.470Z,100718.12
2018-09-01T10:52:37.158Z,100709.97
2018-09-01T10:55:05.011Z,100710.20
2018-09-01T10:57:32.667Z,100713.44
2018-09-01T11:00:00.319Z,100714.55
2018-09-01T11:02:27.958Z,100717.89
2018-09-01T11:04:55.591Z,100721.36
2018-09-01T11:07:23.579Z,100715.20
2018-09-01T11:09:51.213Z,100717.75
2018-09-01T11:12:19.343Z,100712.72
2018-09-01T11:14:46.989Z,100710.70
2018-09-01T11:17:14.848Z,100708.44
2018-09-01T11:19:42.609Z,100713.62
2018-09-01T11:22:10.382Z,100712.59
2018-09-01T11:24:38.063Z,100710.43
2018-09-01T11:27:05.687Z,100707.73
2018-09-01T11:29:33.389Z,100708.91
2018-09-01T11:32:01.184Z,100710.36
2018-09-01T11:34:28.810Z,100712.53
2018-09-01T11:36:56.553Z,100709.67
2018-09-01T11:39:24.159Z,100713.41
2018-09-01T11:41:51.838Z,100715.84
2018-09-01T11:44:19.435Z,100711.65
2018-09-01T11:46:47.056Z,100693.64
2018-09-01T11:49:14.789Z,100717.17
2018-09-01T11:51:42.424Z,100712.99
2018-09-01T11:54:10.071Z,100719.98
2018-09-01T11:56:37.910Z,100714.53
2018-09-01T11:59:06.061Z,100719.79
2018-09-01T12:01:33.763Z,100714.94
2018-09-01T12:04:01.462Z,100713.34
2018-09-01T12:06:29.115Z,100716.83
2018-09-01T12:08:56.909Z,100716.55
2018-09-01T12:11:25.294Z,100718.52
2018-09-01T12:13:53.024Z,100728.21
2018-09-01T12:16:20.679Z,100721.35
2018-09-01T12:18:48.392Z,100727.71
2018-09-01T12:21:16.009Z,100722.78
2018-09-01T12:23:43.633Z,100726.75
2018-09-01T12:26:11.341Z,100721.58
2018-09-01T12:28:38.948Z,100716.62
2018-09-01T12:31:06.921Z,100723.89
2018-09-01T12:33:34.645Z,100723.80
2018-09-01T12:36:02.433Z,100725.19
2018-09-01T12:38:30.080Z,100725.83
2018-09-01T12:40:57.743Z,100724.55
2018-09-01T12:43:25.463Z,100716.08
2018-09-01T12:45:53.088Z,100720.56
2018-09-01T12:48:20.719Z,100727.36
2018-09-01T12:50:48.432Z,100720.48
2018-09-01T12:53:16.639Z,100726.88
2018-09-01T12:55:44.143Z,100726.42
2018-09-01T12:58:11.781Z,100727.24
2018-09-01T13:00:39.504Z,100726.61
2018-09-01T13:03:07.211Z,100728.36
2018-09-01T13:05:34.960Z,100730.60
2018-09-01T13:08:02.933Z,100729.77
2018-09-01T13:10:30.491Z,100724.44
2018-09-01T13:12:58.244Z,100722.97
2018-09-01T13:15:25.948Z,100722.00
2018-09-01T13:17:53.598Z,100721.78
2018-09-01T13:20:21.286Z,100720.69
2018-09-01T13:22:48.933Z,100725.80
2018-09-01T13:25:16.791Z,100726.70
2018-09-01T13:27:44.353Z,100726.77
2018-09-01T13:30:12.269Z,100716.38
2018-09-01T13:32:40.062Z,100732.20
2018-09-01T13:35:07.762Z,100733.48
2018-09-01T13:37:35.423Z,100729.89
2018-09-01T13:40:03.870Z,100740.75
2018-09-01T13:42:31.461Z,100737.48
2018-09-01T13:44:59.193Z,100739.02
2018-09-01T13:47:26.818Z,100746.59
2018-09-01T13:49:54.467Z,100745.13
2018-09-01T13:52:22.167Z,100747.97
2018-09-01T13:54:49.862Z,100747.20
2018-09-01T13:57:17.603Z,100744.58
2018-09-01T13:59:45.157Z,100741.86
2018-09-01T14:02:12.776Z,100742.39
2018-09-01T14:04:40.459Z,100746.83
2018-09-01T14:07:08.127Z,100745.28
2018-09-01T14:09:35.781Z,100745.61
2018-09-01T14:12:03.406Z,100750.30
2018-09-01T14:14:31.114Z,100744.32
2018-09-01T14:16:58.769Z,100738.17
2018-09-01T14:19:26.474Z,100743.32
2018-09-01T14:21:54.084Z,100746.95
2018-09-01T14:24:21.836Z,100743.55
2018-09-01T14:26:49.566Z,100727.83
2018-09-01T14:29:17.254Z,100730.28
2018-09-01T14:31:44.964Z,100732.48
2018-09-01T14:34:14.018Z,100732.62
2018-09-01T14:36:41.678Z,100730.67
2018-09-01T14:39:10.602Z,100732.53
2018-09-01T14:41:38.270Z,100737.52
2018-09-01T14:44:05.975Z,100736.61
2018-09-01T14:46:33.997Z,100736.39
2018-09-01T14:49:01.853Z,100733.41
2018-09-01T14:51:29.496Z,100735.05
2018-09-01T14:53:57.484Z,100740.72
2018-09-01T14:56:25.258Z,100733.55
2018-09-01T14:58:53.036Z,100735.05
2018-09-01T15:01:20.709Z,100737.66
2018-09-01T15:03:48.350Z,100743.11
2018-09-01T15:06:16.006Z,100741.72
2018-09-01T15:08:43.670Z,100743.22
2018-09-01T15:11:11.314Z,100747.48
2018-09-01T15:13:38.948Z,100749.27
2018-09-01T15:16:07.343Z,100743.98
2018-09-01T15:18:35.058Z,100751.09
2018-09-01T15:21:02.737Z,100752.55
2018-09-01T15:23:30.365Z,100753.09
2018-09-01T15:25:58.103Z,100755.13
2018-09-01T15:28:25.874Z,100752.13
2018-09-01T15:30:53.625Z,100762.61
2018-09-01T15:33:21.331Z,100757.52
2018-09-01T15:35:49.053Z,100760.58
2018-09-01T15:38:16.757Z,100771.50
2018-09-01T15:40:44.374Z,100770.44
2018-09-01T15:43:12.009Z,100777.08
2018-09-01T15:45:39.607Z,100773.41
2018-09-01T15:48:07.261Z,100778.80
2018-09-01T15:50:34.951Z,100779.21
2018-09-01T15:53:02.848Z,100779.70
2018-09-01T15:55:30.479Z,100773.84
2018-09-01T15:57:58.111Z,100771.91
2018-09-01T16:00:25.721Z,100768.19
2018-09-01T16:02:53.372Z,100760.84
2018-09-01T16:05:21.180Z,100769.37
2018-09-01T16:07:48.834Z,100771.73
2018-09-01T16:10:16.580Z,100776.02
2018-09-01T16:12:44.238Z,100771.60
2018-09-01T16:15:12.015Z,100776.33
2018-09-01T16:17:39.643Z,100770.08
2018-09-01T16:20:07.321Z,100773.46
2018-09-01T16:22:34.954Z,100775.96
2018-09-01T16:25:02.746Z,100781.67
2018-09-01T16:27:30.372Z,100732.93
2018-09-01T16:29:57.981Z,100774.28
2018-09-01T16:32:32.390Z,100773.61
2018-09-01T16:35:00.075Z,100776.25
2018-09-01T16:37:27.775Z,100773.42
2018-09-01T16:39:55.482Z,100770.30
2018-09-01T16:42:23.290Z,100769.22
2018-09-01T16:44:51.126Z,100768.55
2018-09-01T16:47:18.977Z,100769.20
2018-09-01T16:49:46.616Z,100772.52
2018-09-01T16:52:14.392Z,100774.07
2018-09-01T16:54:42.171Z,100775.88
2018-09-01T16:57:09.813Z,100771.20
2018-09-01T16:59:37.446Z,100768.11
2018-09-01T17:02:05.584Z,100769.21
2018-09-01T17:04:33.303Z,100770.62
2018-09-01T17:07:00.973Z,100771.25
2018-09-01T17:09:28.734Z,100768.39
2018-09-01T17:11:56.952Z,100769.55
2018-09-01T17:14:24.675Z,100774.23
2018-09-01T17:16:52.457Z,100782.67
2018-09-01T17:19:20.101Z,100775.87
2018-09-01T17:21:47.808Z,100787.41
2018-09-01T17:24:15.545Z,100785.03
2018-09-01T17:26:43.156Z,100781.12
2018-09-01T17:29:10.893Z,100787.97
2018-09-01T17:31:38.527Z,100789.08
2018-09-01T17:34:06.293Z,100785.45
2018-09-01T17:36:34.011Z,100788.36
2018-09-01T17:39:01.726Z,100780.30
2018-09-01T17:41:29.384Z,100789.00
2018-09-01T17:43:57.027Z,100793.52
2018-09-01T17:46:24.787Z,100794.00
2018-09-01T17:48:52.502Z,100793.05
2018-09-01T17:51:20.287Z,100793.22
2018-09-01T17:53:48.029Z,100795.98
2018-09-01T17:56:15.779Z,100797.42
2018-09-01T17:58:43.730Z,100786.42
2018-09-01T18:01:11.737Z,100790.29
2018-09-01T18:03:39.390Z,100788.89
2018-09-01T18:06:07.035Z,100796.31
2018-09-01T18:08:34.775Z,100799.03
2018-09-01T18:11:02.489Z,100792.25
2018-09-01T18:13:30.167Z,100788.61
2018-09-01T18:15:58.041Z,100795.78
2018-09-01T18:18:25.911Z,100796.31
2018-09-01T18:20:55.328Z,100798.03
2018-09-01T18:23:24.466Z,100800.48
2018-09-01T18:25:52.166Z,100801.19
2018-09-01T18:28:19.948Z,100806.05
2018-09-01T18:30:47.649Z,100808.45
2018-09-01T18:33:15.550Z,100810.19
2018-09-01T18:35:43.300Z,100812.44
2018-09-01T18:38:11.021Z,100806.30
2018-09-01T18:40:38.626Z,100806.57
2018-09-01T18:43:06.238Z,100807.86
2018-09-01T18:45:33.930Z,100802.09
2018-09-01T18:48:01.582Z,100803.92
2018-09-01T18:50:29.216Z,100801.62
2018-09-01T18:52:56.917Z,100806.40
2018-09-01T18:55:24.700Z,100806.62
2018-09-01T18:57:52.979Z,100805.78
2018-09-01T19:00:20.865Z,100811.99
2018-09-01T19:02:48.510Z,100803.77
2018-09-01T19:05:16.479Z,100809.27
2018-09-01T19:07:44.129Z,100809.79
2018-09-01T19:10:11.843Z,100805.81
2018-09-01T19:12:39.564Z,100806.74
2018-09-01T19:15:07.297Z,100803.13
2018-09-01T19:17:35.029Z,100801.89
2018-09-01T19:20:02.857Z,100804.17
2018-09-01T19:22:30.637Z,100807.06
2018-09-01T19:24:58.906Z,100802.52
2018-09-01T19:27:26.665Z,100799.87
2018-09-01T19:29:54.597Z,100805.12
2018-09-01T19:32:23.416Z,100800.19
2018-09-01T19:34:51.376Z,100801.92
2018-09-01T19:37:19.143Z,100792.69
2018-09-01T19:39:48.284Z,100786.91
2018-09-01T19:42:16.113Z,100785.51
2018-09-01T19:44:43.919Z,100784.89
2018-09-01T19:47:11.567Z,100781.31
2018-09-01T19:49:39.563Z,100780.84
2018-09-01T19:52:07.205Z,100782.39
2018-09-01T19:54:35.044Z,100777.94
2018-09-01T19:57:02.988Z,100775.14
2018-09-01T19:59:30.996Z,100773.13
2018-09-01T20:01:58.629Z,100770.94
2018-09-01T20:04:26.527Z,100775.62
2018-09-01T20:06:54.274Z,100775.91
2018-09-01T20:09:21.931Z,100776.46
2018-09-01T20:11:49.607Z,100777.09
2018-09-01T20:14:17.418Z,100780.79
2018-09-01T20:16:45.206Z,100778.50
2018-09-01T20:19:12.946Z,100785.59
2018-09-01T20:21:40.629Z,100778.99
2018-09-01T20:24:08.388Z,100781.72
2018-09-01T20:26:36.094Z,100783.19
2018-09-01T20:29:03.819Z,100786.20
2018-09-01T20:34:26.618Z,100771.66
2018-09-01T20:36:54.804Z,100764.80
2018-09-01T20:39:22.533Z,100768.84
2018-09-01T20:41:50.284Z,100769.05
2018-09-01T20:44:18.065Z,100780.23
2018-09-01T20:46:45.837Z,100775.38
2018-09-01T20:49:13.490Z,100768.77
2018-09-01T20:51:41.152Z,100778.47
2018-09-01T20:54:08.816Z,100789.17
2018-09-01T20:56:36.499Z,100779.23
2018-09-01T20:59:04.240Z,100786.25
2018-09-01T21:01:31.966Z,100781.59
2018-09-01T21:03:59.930Z,100778.27
2018-09-01T21:06:27.618Z,100780.16
2018-09-01T21:08:55.611Z,100779.19
2018-09-01T21:11:23.433Z,100773.05
2018-09-01T21:13:51.131Z,100772.37
2018-09-01T21:16:18.834Z,100769.52
2018-09-01T21:18:46.471Z,100771.55
2018-09-01T21:21:14.346Z,100770.19
2018-09-01T21:23:42.063Z,100774.64
2018-09-01T21:26:09.749Z,100785.82
2018-09-01T21:28:37.473Z,100784.27
2018-09-01T21:31:05.111Z,100773.02
2018-09-01T21:33:33.154Z,100775.48
2018-09-01T21:36:00.823Z,100777.47
2018-09-01T21:38:28.544Z,100773.88
2018-09-01T21:40:56.136Z,100773.14
2018-09-01T21:43:23.795Z,100771.74
2018-09-01T21:45:51.451Z,100773.22
2018-09-01T21:48:19.235Z,100776.53
2018-09-01T21:50:46.844Z,100777.19
2018-09-01T21:53:14.479Z,100770.70
2018-09-01T21:55:42.164Z,100773.16
2018-09-01T21:58:09.753Z,100765.87
2018-09-01T22:00:41.753Z,100770.57
2018-09-01T22:03:09.383Z,100773.04
2018-09-01T22:05:37.121Z,100768.34
2018-09-01T22:08:04.771Z,100767.64
2018-09-01T22:10:32.588Z,100768.96
2018-09-01T22:13:00.229Z,100756.83
2018-09-01T22:15:27.877Z,100749.04
2018-09-01T22:17:55.482Z,100754.88
2018-09-01T22:20:23.193Z,100758.78
2018-09-01T22:22:50.804Z,100761.25
2018-09-01T22:25:18.405Z,100757.19
2018-09-01T22:27:46.066Z,100752.52
2018-09-01T22:30:13.799Z,100754.34
2018-09-01T22:32:41.428Z,100751.20
2018-09-01T22:35:09.064Z,100757.70
2018-09-01T22:37:36.764Z,100750.11
2018-09-01T22:40:04.445Z,100751.84
2018-09-01T22:42:32.104Z,100746.14
2018-09-01T22:44:59.720Z,100750.56
2018-09-01T22:47:29.032Z,100747.65
2018-09-01T22:49:56.729Z,100749.66
2018-09-01T22:52:24.421Z,100753.62
2018-09-01T22:54:51.999Z,100755.61
2018-09-01T22:57:20.101Z,100754.22
2018-09-01T22:59:47.842Z,100754.61
2018-09-01T23:02:15.712Z,100750.30
2018-09-01T23:04:43.333Z,100758.20
2018-09-01T23:07:11.019Z,100755.84
2018-09-01T23:09:38.671Z,100754.29
2018-09-01T23:12:06.454Z,100752.91
2018-09-01T23:14:34.122Z,100749.44
2018-09-01T23:17:01.742Z,100754.91
2018-09-01T23:19:29.461Z,100752.55
2018-09-01T23:21:57.127Z,100753.80
2018-09-01T23:24:24.809Z,100754.05
2018-09-01T23:26:52.519Z,100748.55
2018-09-01T23:29:20.197Z,100751.14
2018-09-01T23:31:47.935Z,100746.72
2018-09-01T23:34:15.656Z,100749.19
2018-09-01T23:36:43.275Z,100752.74
2018-09-01T23:39:11.575Z,100748.76
2018-09-01T23:41:39.663Z,100743.97
2018-09-01T23:44:07.503Z,100744.63
2018-09-01T23:46:35.373Z,100744.06
2018-09-01T23:49:03.374Z,100745.11
2018-09-01T23:51:31.002Z,100736.02
2018-09-01T23:53:58.656Z,100738.54
2018-09-01T23:56:26.390Z,100740.70
2018-09-01T23:58:53.978Z,100739.92
